Time;durP1;ratioP1;P1;durP2;ratioP2;P2;SDS_P1;SDS_P2;PMS_P1;PMS_P2;Temp;Humidity;BMP_temperature;BMP_pressure;BME280_temperature;BME280_humidity;BME280_pressure;Samples;Min_cycle;Max_cycle;Signal;HPM_P1;HPM_P2
2023/08/16 00:01:57;;;;;;;;;;;;;;;18.00;80.40;101867.06;5056019;28;1140;-74
2023/08/16 00:04:23;;;;;;;;;;;;;;;17.98;80.58;101864.59;5044736;28;1435;-71
2023/08/16 00:06:48;;;;;;;;;;;;;;;18.00;80.96;101867.06;5058595;28;1101;-72
2023/08/16 00:09:15;;;;;;;;;;;;;;;17.96;80.71;101856.06;5050789;28;1263;-71
2023/08/16 00:11:40;;;;;;;;;;;;;;;17.95;80.79;101864.91;5053558;28;2283;-72
2023/08/16 00:14:05;;;;;;;;;;;;;;;17.93;81.23;101861.59;5054779;28;1086;-72
2023/08/16 00:16:31;;;;;;;;;;;;;;;17.91;81.33;101863.53;5050845;28;1092;-72
2023/08/16 00:18:56;;;;;;;;;;;;;;;17.88;81.25;101863.81;5050765;28;1069;-71
2023/08/16 00:21:21;;;;;;;;;;;;;;;17.84;81.04;101862.50;5043388;28;1375;-73
2023/08/16 00:23:46;;;;;;;;;;;;;;;17.81;81.52;101862.78;5055138;28;1040;-72
2023/08/16 00:26:11;;;;;;;;;;;;;;;17.76;81.45;101865.84;5032825;28;1174;-72
2023/08/16 00:28:36;;;;;;;;;;;;;;;17.73;81.52;101862.69;5051404;28;1146;-72
2023/08/16 00:31:02;;;;;;;;;;;;;;;17.71;81.34;101867.22;5050794;28;1902;-72
2023/08/16 00:33:27;;;;;;;;;;;;;;;17.69;81.77;101863.91;5051283;28;1146;-75
2023/08/16 00:35:52;;;;;;;;;;;;;;;17.63;82.21;101869.75;5048558;28;1105;-71
2023/08/16 00:38:18;;;;;;;;;;;;;;;17.60;81.87;101865.59;5046322;28;1097;-72
2023/08/16 00:40:50;;;;;;;;;;;;;;;17.59;82.53;101868.38;5050053;28;1195;-71
2023/08/16 00:43:15;;;;;;;;;;;;;;;17.55;82.55;101872.25;5042232;28;1137;-72
2023/08/16 00:45:41;;;;;;;;;;;;;;;17.52;82.37;101868.97;5043453;28;1168;-72
2023/08/16 00:48:06;;;;;;;;;;;;;;;17.51;82.09;101862.06;5042692;28;1120;-72
2023/08/16 00:50:32;;;;;;;;;;;;;;;17.50;82.41;101868.28;5038523;28;1906;-72
2023/08/16 00:52:57;;;;;;;;;;;;;;;17.46;82.49;101869.53;5053414;28;1464;-72
2023/08/16 00:55:22;;;;;;;;;;;;;;;17.44;82.42;101871.50;5051139;28;1146;-73
2023/08/16 00:57:48;;;;;;;;;;;;;;;17.41;82.73;101871.78;5045405;28;1143;-71
2023/08/16 01:00:14;;;;;;;;;;;;;;;17.40;82.46;101869.31;5062499;28;1107;-71
2023/08/16 01:02:39;;;;;;;;;;;;;;;17.37;82.43;101869.56;5056937;28;1205;-72
2023/08/16 01:05:05;;;;;;;;;;;;;;;17.31;82.67;101870.97;5051911;28;1163;-71
2023/08/16 01:07:31;;;;;;;;;;;;;;;17.30;83.10;101869.31;5048997;28;1115;-71
2023/08/16 01:09:56;;;;;;;;;;;;;;;17.30;82.80;101871.13;5056992;28;1910;-71
2023/08/16 01:12:27;;;;;;;;;;;;;;;17.28;82.87;101876.53;5039966;28;1321;-72
2023/08/16 01:14:57;;;;;;;;;;;;;;;17.25;82.92;101882.84;5051952;28;1188;-72
2023/08/16 01:17:23;;;;;;;;;;;;;;;17.24;82.88;101875.16;5030757;28;1210;-72
2023/08/16 01:19:50;;;;;;;;;;;;;;;17.20;83.22;101884.25;5036926;28;1340;-72
2023/08/16 01:22:34;;;;;;;;;;;;;;;17.18;82.83;101883.59;5049130;28;1160;-71
2023/08/16 01:25:05;;;;;;;;;;;;;;;17.15;82.89;101886.50;5053460;28;1091;-73
2023/08/16 01:27:30;;;;;;;;;;;;;;;17.14;83.37;101890.06;5052874;28;1102;-73
2023/08/16 01:29:55;;;;;;;;;;;;;;;17.09;83.23;101895.75;5046486;28;1894;-72
2023/08/16 01:32:22;;;;;;;;;;;;;;;17.06;83.30;101897.81;5052522;28;1093;-71
2023/08/16 01:34:47;;;;;;;;;;;;;;;17.03;83.55;101892.84;5052939;28;993;-72
2023/08/16 01:37:12;;;;;;;;;;;;;;;17.00;83.45;101909.69;5050633;28;1123;-71
2023/08/16 01:39:38;;;;;;;;;;;;;;;16.99;83.82;101906.25;5032266;28;1038;-72
2023/08/16 01:42:05;;;;;;;;;;;;;;;16.99;84.06;101903.63;5047778;28;1172;-71
2023/08/16 01:44:32;;;;;;;;;;;;;;;17.02;83.93;101901.69;5041471;28;1321;-72
2023/08/16 01:46:57;;;;;;;;;;;;;;;17.04;83.98;101905.00;5044000;28;1045;-72
2023/08/16 01:49:23;;;;;;;;;;;;;;;17.02;84.13;101907.75;5040364;28;1076;-74
2023/08/16 01:51:49;;;;;;;;;;;;;;;17.04;84.19;101905.00;5046130;28;1902;-73
2023/08/16 01:54:14;;;;;;;;;;;;;;;17.04;84.09;101910.25;5046821;28;1036;-71
2023/08/16 01:56:39;;;;;;;;;;;;;;;17.04;84.13;101910.25;5035422;28;1252;-73
2023/08/16 01:59:05;;;;;;;;;;;;;;;17.04;84.51;101899.78;5049144;28;1048;-74
2023/08/16 02:01:30;;;;;;;;;;;;;;;17.02;84.39;101896.44;5045760;28;1192;-71
2023/08/16 02:03:55;;;;;;;;;;;;;;;17.01;84.79;101897.41;5053023;28;1096;-71
2023/08/16 02:06:21;;;;;;;;;;;;;;;16.99;84.66;101887.91;5050614;28;1077;-72
2023/08/16 02:08:46;;;;;;;;;;;;;;;16.98;84.53;101891.50;5060664;28;1014;-72
2023/08/16 02:11:11;;;;;;;;;;;;;;;16.98;84.88;101896.75;5054776;28;1914;-72
2023/08/16 02:13:37;;;;;;;;;;;;;;;17.02;84.98;101897.28;5057476;28;1326;-71
2023/08/16 02:16:02;;;;;;;;;;;;;;;17.05;84.93;101904.03;5054536;28;1111;-71
2023/08/16 02:18:29;;;;;;;;;;;;;;;17.03;84.94;101904.16;5054097;28;1252;-72
2023/08/16 02:20:54;;;;;;;;;;;;;;;16.99;85.04;101901.00;5051833;28;1085;-72
2023/08/16 02:23:19;;;;;;;;;;;;;;;16.97;84.70;101900.34;5050963;28;1303;-72
2023/08/16 02:25:44;;;;;;;;;;;;;;;16.97;84.90;101900.34;5051132;28;1001;-74
2023/08/16 02:28:10;;;;;;;;;;;;;;;16.99;84.66;101893.16;5055836;28;1163;-71
2023/08/16 02:30:35;;;;;;;;;;;;;;;17.01;84.96;101902.66;5059253;28;1910;-71
2023/08/16 02:33:00;;;;;;;;;;;;;;;16.96;84.66;101898.66;5057975;28;1188;-72
2023/08/16 02:35:25;;;;;;;;;;;;;;;16.94;84.91;101903.22;5043416;28;1385;-71
2023/08/16 02:37:51;;;;;;;;;;;;;;;16.92;85.06;101913.03;5055338;28;1155;-74
2023/08/16 02:40:16;;;;;;;;;;;;;;;16.92;85.11;101918.28;5052256;28;1098;-73
2023/08/16 02:42:41;;;;;;;;;;;;;;;16.91;84.93;101911.34;5048934;28;1193;-71
2023/08/16 02:45:07;;;;;;;;;;;;;;;16.91;85.02;101921.84;5054279;28;1098;-71
2023/08/16 02:47:32;;;;;;;;;;;;;;;16.93;85.33;101919.09;5050504;28;1029;-71
2023/08/16 02:49:57;;;;;;;;;;;;;;;16.92;85.73;101918.28;5049484;28;1910;-73
2023/08/16 02:52:22;;;;;;;;;;;;;;;16.95;85.74;101911.91;5050438;28;1419;-74
2023/08/16 02:54:48;;;;;;;;;;;;;;;16.94;85.67;101911.09;5045369;28;1054;-71
2023/08/16 02:57:18;;;;;;;;;;;;;;;16.93;85.84;101909.44;5032797;28;1239;-71
2023/08/16 02:59:46;;;;;;;;;;;;;;;16.93;85.26;101903.38;5051731;28;1094;-72
2023/08/16 03:02:11;;;;;;;;;;;;;;;16.90;85.81;101904.47;5045386;28;1236;-71
2023/08/16 03:04:39;;;;;;;;;;;;;;;16.88;85.70;101900.34;5044491;28;1118;-71
2023/08/16 03:07:04;;;;;;;;;;;;;;;16.85;85.83;101904.06;5038470;28;1329;-72
2023/08/16 03:09:29;;;;;;;;;;;;;;;16.82;85.75;101906.16;5049211;28;1271;-72
2023/08/16 03:11:54;;;;;;;;;;;;;;;16.81;85.98;101910.56;5054288;28;1906;-71
2023/08/16 03:14:19;;;;;;;;;;;;;;;16.79;86.25;101909.84;5053993;28;1156;-71
2023/08/16 03:16:46;;;;;;;;;;;;;;;16.79;85.95;101911.66;5055262;28;1074;-72
2023/08/16 03:19:11;;;;;;;;;;;;;;;16.72;86.22;101903.53;5060417;28;1159;-72
2023/08/16 03:21:36;;;;;;;;;;;;;;;16.71;86.12;101909.72;5044903;28;1192;-73
2023/08/16 03:24:01;;;;;;;;;;;;;;;16.68;86.55;101915.19;5053586;28;1089;-71
2023/08/16 03:26:27;;;;;;;;;;;;;;;16.66;86.38;101911.91;5054039;28;1109;-72
2023/08/16 03:28:52;;;;;;;;;;;;;;;16.65;86.62;101915.50;5049473;28;1154;-71
2023/08/16 03:31:18;;;;;;;;;;;;;;;16.65;86.63;101905.03;5054739;28;1977;-73
2023/08/16 03:33:44;;;;;;;;;;;;;;;16.63;86.46;101902.53;5057125;28;1361;-71
2023/08/16 03:36:09;;;;;;;;;;;;;;;16.61;86.38;101895.78;5054788;28;1116;-71
2023/08/16 03:38:34;;;;;;;;;;;;;;;16.62;86.73;101905.28;5056455;28;1013;-71
2023/08/16 03:40:59;;;;;;;;;;;;;;;16.61;87.11;101914.09;5036644;28;1491;-73
2023/08/16 03:43:24;;;;;;;;;;;;;;;16.58;86.69;101925.69;5049168;28;1002;-72
2023/08/16 03:45:50;;;;;;;;;;;;;;;16.59;86.47;101927.34;5053101;28;1132;-73
2023/08/16 03:48:15;;;;;;;;;;;;;;;16.59;86.66;101926.53;5042616;28;1151;-72
2023/08/16 03:50:40;;;;;;;;;;;;;;;16.57;86.54;101928.44;5050365;28;1905;-71
2023/08/16 03:53:05;;;;;;;;;;;;;;;16.56;86.62;101926.78;5048855;28;1232;-72
2023/08/16 03:55:30;;;;;;;;;;;;;;;16.54;86.75;101926.09;5045222;28;977;-71
2023/08/16 03:57:56;;;;;;;;;;;;;;;16.53;86.31;101937.56;5048247;28;1147;-72
2023/08/16 04:00:21;;;;;;;;;;;;;;;16.52;86.80;101930.66;5045346;28;1150;-72
2023/08/16 04:02:46;;;;;;;;;;;;;;;16.49;86.62;101926.50;5051203;28;1257;-72
2023/08/16 04:05:12;;;;;;;;;;;;;;;16.46;86.63;101925.00;5049711;28;1244;-71
2023/08/16 04:07:38;;;;;;;;;;;;;;;16.42;87.29;101926.22;5045732;28;932;-73
2023/08/16 04:10:03;;;;;;;;;;;;;;;16.39;86.84;101921.25;5048438;28;1901;-72
2023/08/16 04:12:28;;;;;;;;;;;;;;;16.38;86.76;101919.59;5047483;28;1265;-71
2023/08/16 04:14:53;;;;;;;;;;;;;;;16.41;86.68;101935.06;5059516;28;1054;-71
2023/08/16 04:17:18;;;;;;;;;;;;;;;16.41;86.98;101940.28;5050461;28;1069;-71
2023/08/16 04:19:44;;;;;;;;;;;;;;;16.43;86.58;101937.53;5055175;28;982;-71
2023/08/16 04:22:09;;;;;;;;;;;;;;;16.42;86.64;101939.31;5056464;28;1212;-71
2023/08/16 04:24:34;;;;;;;;;;;;;;;16.41;87.16;101929.81;5058474;28;1033;-73
2023/08/16 04:26:59;;;;;;;;;;;;;;;16.38;87.11;101930.06;5053476;28;1059;-72
2023/08/16 04:29:24;;;;;;;;;;;;;;;16.34;87.33;101933.94;5049242;28;1069;-71
2023/08/16 04:31:50;;;;;;;;;;;;;;;16.32;87.48;101930.63;5051612;28;1951;-72
2023/08/16 04:34:15;;;;;;;;;;;;;;;16.28;87.55;101934.47;5056957;28;1104;-72
2023/08/16 04:36:40;;;;;;;;;;;;;;;16.30;87.15;101937.81;5038887;28;1495;-71
2023/08/16 04:39:05;;;;;;;;;;;;;;;16.31;87.59;101933.38;5057906;28;1116;-71
2023/08/16 04:41:30;;;;;;;;;;;;;;;16.28;87.53;101939.69;5039733;28;1177;-71
2023/08/16 04:43:55;;;;;;;;;;;;;;;16.28;87.94;101939.69;5052697;28;1115;-72
2023/08/16 04:46:21;;;;;;;;;;;;;;;16.29;87.43;101946.63;5050712;28;1049;-71
2023/08/16 04:48:46;;;;;;;;;;;;;;;16.30;87.87;101942.22;5050038;28;1109;-71
2023/08/16 04:51:11;;;;;;;;;;;;;;;16.31;87.72;101944.69;5050712;28;1898;-72
2023/08/16 04:53:37;;;;;;;;;;;;;;;16.31;87.99;101949.91;5053476;28;1049;-72
2023/08/16 04:56:02;;;;;;;;;;;;;;;16.34;88.18;101952.25;5050351;28;1241;-72
2023/08/16 04:58:27;;;;;;;;;;;;;;;16.35;88.21;101953.94;5047370;28;1157;-72
2023/08/16 05:00:52;;;;;;;;;;;;;;;16.33;89.25;101953.22;5051559;28;1149;-71
2023/08/16 05:03:17;;;;;;;;;;;;;;;16.27;88.59;101953.75;5051932;28;1056;-71
2023/08/16 05:05:43;;;;;;;;;;;;;;;16.27;88.62;101952.94;5045798;28;1019;-71
2023/08/16 05:08:08;;;;;;;;;;;;;;;16.26;88.46;101952.09;5046485;28;1086;-72
2023/08/16 05:10:33;;;;;;;;;;;;;;;16.32;88.21;101956.81;5048869;28;1938;-73
2023/08/16 05:12:58;;;;;;;;;;;;;;;16.33;88.40;101961.06;5047755;28;1253;-71
2023/08/16 05:15:23;;;;;;;;;;;;;;;16.34;88.53;101965.34;5046799;28;1165;-73
2023/08/16 05:17:49;;;;;;;;;;;;;;;16.35;88.51;101956.56;5028493;28;1384;-71
2023/08/16 05:20:14;;;;;;;;;;;;;;;16.35;88.59;101956.56;5046673;28;1166;-73
2023/08/16 05:22:39;;;;;;;;;;;;;;;16.36;88.52;101957.38;5046130;28;1214;-71
2023/08/16 05:25:04;;;;;;;;;;;;;;;16.37;88.84;101953.78;5050163;28;1069;-74
2023/08/16 05:27:30;;;;;;;;;;;;;;;16.38;88.77;101956.25;5044601;28;1123;-73
2023/08/16 05:29:55;;;;;;;;;;;;;;;16.36;88.79;101966.06;5045101;28;1017;-71
2023/08/16 05:32:20;;;;;;;;;;;;;;;16.33;88.97;101958.47;5046493;28;1973;-74
2023/08/16 05:34:45;;;;;;;;;;;;;;;16.30;88.92;101958.75;5061616;28;1054;-71
2023/08/16 05:37:11;;;;;;;;;;;;;;;16.32;89.20;101966.44;5058604;28;1088;-72
2023/08/16 05:39:36;;;;;;;;;;;;;;;16.35;89.49;101969.66;5058616;28;1090;-71
2023/08/16 05:42:02;;;;;;;;;;;;;;;16.34;90.46;101970.56;5056780;28;1458;-71
2023/08/16 05:44:27;;;;;;;;;;;;;;;16.36;89.75;101968.66;5035551;28;1299;-72
2023/08/16 05:46:52;;;;;;;;;;;;;;;16.42;89.96;101973.38;5055562;28;1193;-71
2023/08/16 05:49:17;;;;;;;;;;;;;;;16.43;90.04;101982.88;5053919;28;1140;-72
2023/08/16 05:51:42;;;;;;;;;;;;;;;16.46;89.37;101995.72;5038735;28;1975;-71
2023/08/16 05:54:07;;;;;;;;;;;;;;;16.51;89.46;101986.59;5053418;28;1596;-71
2023/08/16 05:56:33;;;;;;;;;;;;;;;16.53;89.54;101990.75;5058026;28;1148;-71
2023/08/16 05:58:58;;;;;;;;;;;;;;;16.59;89.97;101994.63;5054617;28;1031;-71
2023/08/16 06:01:23;;;;;;;;;;;;;;;16.62;89.91;101994.34;5056057;28;1159;-72
2023/08/16 06:03:48;;;;;;;;;;;;;;;16.64;89.56;102000.28;5051189;28;1077;-73
2023/08/16 06:06:14;;;;;;;;;;;;;;;16.68;89.62;101996.41;5055939;28;1151;-73
2023/08/16 06:08:40;;;;;;;;;;;;;;;16.69;89.52;101995.47;5034224;28;1433;-72
2023/08/16 06:11:05;;;;;;;;;;;;;;;16.71;89.68;101994.38;5054852;28;1894;-71
2023/08/16 06:13:30;;;;;;;;;;;;;;;16.76;89.63;102001.84;5054464;28;1139;-72
2023/08/16 06:15:56;;;;;;;;;;;;;;;16.79;89.38;102006.78;5055096;28;1127;-71
2023/08/16 06:18:21;;;;;;;;;;;;;;;16.82;89.43;102003.91;5051993;28;1201;-71
2023/08/16 06:20:46;;;;;;;;;;;;;;;16.85;89.06;102006.25;5052948;28;1438;-71
2023/08/16 06:23:11;;;;;;;;;;;;;;;16.91;89.07;102010.94;5049886;28;1153;-71
2023/08/16 06:25:36;;;;;;;;;;;;;;;16.93;89.30;102003.78;5048962;28;1486;-72
2023/08/16 06:28:02;;;;;;;;;;;;;;;16.95;89.01;102007.09;5049554;28;1045;-71
2023/08/16 06:30:28;;;;;;;;;;;;;;;16.92;88.99;102010.00;5048667;28;1922;-72
2023/08/16 06:32:53;;;;;;;;;;;;;;;16.90;88.98;102004.03;5055249;28;1251;-73
2023/08/16 06:35:18;;;;;;;;;;;;;;;16.91;89.11;102003.06;5053501;28;1619;-74
2023/08/16 06:37:46;;;;;;;;;;;;;;;16.94;88.77;102005.44;5067765;28;1119;-73
2023/08/16 06:40:11;;;;;;;;;;;;;;;16.95;88.78;102007.09;5051941;28;1063;-75
2023/08/16 06:42:36;;;;;;;;;;;;;;;16.98;89.38;102012.06;5063305;28;1073;-71
2023/08/16 06:45:01;;;;;;;;;;;;;;;17.02;88.89;102022.25;5056624;28;1184;-71
2023/08/16 06:47:27;;;;;;;;;;;;;;;16.99;89.27;102013.72;5038151;28;1300;-72
2023/08/16 06:49:52;;;;;;;;;;;;;;;17.01;88.93;102020.59;5044768;28;1196;-71
2023/08/16 06:52:18;;;;;;;;;;;;;;;17.02;89.15;102022.25;5055911;28;1965;-72
2023/08/16 06:54:43;;;;;;;;;;;;;;;17.05;89.09;102027.25;5045623;28;1073;-71
2023/08/16 06:57:08;;;;;;;;;;;;;;;17.08;89.05;102026.94;5054251;28;1076;-72
2023/08/16 06:59:35;;;;;;;;;;;;;;;17.13;89.11;102024.75;5031646;28;1327;-72
2023/08/16 07:02:00;;;;;;;;;;;;;;;17.17;89.10;102031.38;5053481;28;1467;-73
2023/08/16 07:04:26;;;;;;;;;;;;;;;17.18;89.00;102020.72;5049013;28;1071;-72
2023/08/16 07:06:51;;;;;;;;;;;;;;;17.21;88.90;102028.34;5045072;28;1152;-71
2023/08/16 07:09:16;;;;;;;;;;;;;;;17.26;89.10;102025.28;5050760;28;1167;-72
2023/08/16 07:11:42;;;;;;;;;;;;;;;17.26;88.78;102025.28;5049027;28;1957;-71
2023/08/16 07:14:07;;;;;;;;;;;;;;;17.29;89.27;102025.00;5053144;28;1121;-71
2023/08/16 07:16:33;;;;;;;;;;;;;;;17.32;89.37;102024.75;5048162;28;1456;-71
2023/08/16 07:18:58;;;;;;;;;;;;;;;17.34;88.96;102025.41;5029717;28;1455;-72
2023/08/16 07:21:23;;;;;;;;;;;;;;;17.37;89.13;102026.91;5044400;28;1137;-72
2023/08/16 07:23:49;;;;;;;;;;;;;;;17.40;89.24;102027.47;5030879;28;1192;-71
2023/08/16 07:26:14;;;;;;;;;;;;;;;17.48;89.13;102024.97;5049040;28;1162;-71
2023/08/16 07:28:39;;;;;;;;;;;;;;;17.55;89.18;102034.91;5043120;28;1241;-73
2023/08/16 07:31:04;;;;;;;;;;;;;;;17.62;88.98;102028.13;5048079;28;1913;-71
2023/08/16 07:33:30;;;;;;;;;;;;;;;17.70;89.13;102028.25;5048267;28;1449;-73
2023/08/16 07:36:00;;;;;;;;;;;;;;;17.76;88.75;102032.94;5044993;28;1285;-72
2023/08/16 07:38:25;;;;;;;;;;;;;;;17.83;88.45;102028.78;5062245;28;1173;-73
2023/08/16 07:40:50;;;;;;;;;;;;;;;17.89;88.01;102028.22;5062940;28;1306;-72
2023/08/16 07:43:15;;;;;;;;;;;;;;;17.93;87.91;102020.88;5054154;28;1135;-73
2023/08/16 07:45:41;;;;;;;;;;;;;;;18.00;87.92;102022.78;5057256;28;1190;-72
2023/08/16 07:48:06;;;;;;;;;;;;;;;18.10;87.75;102024.53;5048508;28;1126;-72
2023/08/16 07:50:31;;;;;;;;;;;;;;;18.17;87.25;102036.13;5055505;28;2270;-71
2023/08/16 07:52:56;;;;;;;;;;;;;;;18.25;86.69;102038.84;5057050;28;1328;-73
2023/08/16 07:55:22;;;;;;;;;;;;;;;18.33;86.76;102041.56;5048396;28;1134;-73
2023/08/16 07:57:47;;;;;;;;;;;;;;;18.36;86.46;102033.41;5053516;28;1435;-71
2023/08/16 08:00:12;;;;;;;;;;;;;;;18.42;85.94;102040.69;5049065;28;867;-71
2023/08/16 08:02:41;;;;;;;;;;;;;;;18.46;85.28;102035.97;5031673;28;1191;-71
2023/08/16 08:05:06;;;;;;;;;;;;;;;18.50;84.53;102043.41;5048348;28;1440;-72
2023/08/16 08:07:32;;;;;;;;;;;;;;;18.56;83.97;102045.44;5046325;28;1311;-71
2023/08/16 08:09:57;;;;;;;;;;;;;;;18.64;84.52;102049.13;5049472;28;1067;-71
2023/08/16 08:12:22;;;;;;;;;;;;;;;18.75;84.66;102035.81;5046681;28;1902;-71
2023/08/16 08:14:47;;;;;;;;;;;;;;;18.83;83.84;102038.53;5044256;28;1182;-72
2023/08/16 08:17:13;;;;;;;;;;;;;;;18.83;80.95;102041.16;5049547;28;1177;-72
2023/08/16 08:19:38;;;;;;;;;;;;;;;18.83;81.10;102041.16;5050202;28;1416;-73
2023/08/16 08:22:03;;;;;;;;;;;;;;;18.89;81.79;102047.63;5050188;28;1157;-73
2023/08/16 08:24:28;;;;;;;;;;;;;;;18.98;82.20;102051.97;5044090;28;1196;-73
2023/08/16 08:26:54;;;;;;;;;;;;;;;19.08;80.98;102058.81;5044249;28;1146;-72
2023/08/16 08:29:19;;;;;;;;;;;;;;;19.14;80.66;102062.63;5043090;28;1118;-72
2023/08/16 08:31:44;;;;;;;;;;;;;;;19.24;80.67;102065.19;5042544;28;1866;-74
2023/08/16 08:34:10;;;;;;;;;;;;;;;19.30;80.19;102067.22;5043550;28;1087;-72
2023/08/16 08:36:35;;;;;;;;;;;;;;;19.34;79.52;102068.56;5042157;28;1139;-74
2023/08/16 08:39:01;;;;;;;;;;;;;;;19.39;79.83;102071.56;5038989;28;1201;-73
2023/08/16 08:41:26;;;;;;;;;;;;;;;19.37;78.64;102063.00;5023506;28;1216;-73
2023/08/16 08:43:51;;;;;;;;;;;;;;;19.42;78.64;102065.16;5048449;28;1571;-73
2023/08/16 08:46:17;;;;;;;;;;;;;;;19.46;79.41;102059.44;5041013;28;1124;-74
2023/08/16 08:48:44;;;;;;;;;;;;;;;19.56;78.83;102062.00;5050724;28;1207;-74
2023/08/16 08:51:09;;;;;;;;;;;;;;;19.67;78.57;102053.88;5057260;28;1902;-73
2023/08/16 08:53:34;;;;;;;;;;;;;;;19.75;78.34;102055.72;5047145;28;1095;-73
2023/08/16 08:56:02;;;;;;;;;;;;;;;19.86;78.35;102047.56;5040486;28;1256;-73
2023/08/16 08:58:28;;;;;;;;;;;;;;;20.00;78.17;102062.78;5050247;28;1132;-73
2023/08/16 09:00:53;;;;;;;;;;;;;;;20.00;78.44;102060.13;5051951;28;1241;-73
2023/08/16 09:03:20;;;;;;;;;;;;;;;20.07;78.21;102061.19;5048006;28;1321;-73
2023/08/16 09:05:47;;;;;;;;;;;;;;;20.17;77.59;102058.41;5048340;28;1156;-73
2023/08/16 09:08:14;;;;;;;;;;;;;;;20.26;77.42;102059.28;5044894;28;1508;-73
2023/08/16 09:10:40;;;;;;;;;;;;;;;20.39;77.28;102059.66;5042441;28;1914;-74
2023/08/16 09:13:06;;;;;;;;;;;;;;;20.44;76.65;102073.19;5033544;28;1572;-73
2023/08/16 09:15:32;;;;;;;;;;;;;;;20.46;76.09;102065.13;5045776;28;2276;-74
2023/08/16 09:18:10;;;;;;;;;;;;;;;20.47;75.77;102059.69;5045735;28;1015;-73
2023/08/16 09:20:35;;;;;;;;;;;;;;;20.51;76.22;102062.84;5043365;28;1099;-74
2023/08/16 09:23:01;;;;;;;;;;;;;;;20.49;75.12;102059.56;5048281;28;1638;-76
2023/08/16 09:25:27;;;;;;;;;;;;;;;20.56;76.28;102060.56;5044039;28;1312;-73
2023/08/16 09:27:53;;;;;;;;;;;;;;;20.66;76.12;102062.09;5043387;28;1058;-73
2023/08/16 09:30:18;;;;;;;;;;;;;;;20.82;76.49;102065.75;5032493;28;1945;-73
2023/08/16 09:32:45;;;;;;;;;;;;;;;20.96;75.57;102065.09;5035434;28;1661;-73
2023/08/16 09:35:12;;;;;;;;;;;;;;;21.04;75.47;102069.53;5054769;28;1102;-72
2023/08/16 09:37:38;;;;;;;;;;;;;;;21.10;74.14;102064.44;5036315;28;1173;-73
2023/08/16 09:40:06;;;;;;;;;;;;;;;21.09;74.86;102060.16;5050801;28;1081;-74
2023/08/16 09:42:32;;;;;;;;;;;;;;;21.20;74.70;102054.56;5047573;28;1114;-75
2023/08/16 09:44:57;;;;;;;;;;;;;;;21.29;74.95;102058.06;5041794;28;1029;-74
2023/08/16 09:47:22;;;;;;;;;;;;;;;21.42;74.34;102052.28;5042324;28;1247;-74
2023/08/16 09:49:49;;;;;;;;;;;;;;;21.44;73.09;102055.56;5042400;28;1297;-73
2023/08/16 09:52:15;;;;;;;;;;;;;;;21.43;71.24;102046.00;5029553;28;1894;-72
2023/08/16 09:54:40;;;;;;;;;;;;;;;21.48;73.72;102041.03;5043871;28;1065;-75
2023/08/16 09:57:05;;;;;;;;;;;;;;;21.56;73.16;102043.66;5046915;28;1113;-72
2023/08/16 09:59:30;;;;;;;;;;;;;;;21.65;72.75;102047.94;5048662;28;1169;-73
2023/08/16 10:01:57;;;;;;;;;;;;;;;21.73;72.24;102045.31;5050575;28;1126;-73
2023/08/16 10:04:22;;;;;;;;;;;;;;;21.83;72.57;102044.28;5047726;28;1105;-72
2023/08/16 10:06:48;;;;;;;;;;;;;;;21.89;72.75;102054.16;5046494;28;1113;-73
2023/08/16 10:09:15;;;;;;;;;;;;;;;21.94;72.88;102052.66;5045788;28;1140;-73
2023/08/16 10:11:40;;;;;;;;;;;;;;;21.95;72.39;102054.28;5041400;28;1890;-76
2023/08/16 10:14:06;;;;;;;;;;;;;;;21.92;71.82;102053.81;5029467;28;1244;-73
2023/08/16 10:16:34;;;;;;;;;;;;;;;21.83;71.55;102057.47;5046685;28;1299;-73
2023/08/16 10:19:00;;;;;;;;;;;;;;;21.69;69.42;102056.38;5042407;28;1066;-73
2023/08/16 10:21:27;;;;;;;;;;;;;;;21.57;69.74;102050.63;5050687;28;1316;-73
2023/08/16 10:23:55;;;;;;;;;;;;;;;21.44;70.46;102050.28;5049699;28;1062;-72
2023/08/16 10:26:22;;;;;;;;;;;;;;;21.38;70.35;102050.94;5054911;28;1142;-73
2023/08/16 10:28:50;;;;;;;;;;;;;;;21.43;70.21;102053.91;5049827;28;1038;-73
2023/08/16 10:31:19;;;;;;;;;;;;;;;21.50;69.47;102044.31;5034753;28;1905;-73
2023/08/16 10:33:46;;;;;;;;;;;;;;;21.62;70.26;102053.56;5063715;28;1164;-72
2023/08/16 10:36:12;;;;;;;;;;;;;;;21.60;69.73;102060.81;5056378;28;1109;-74
2023/08/16 10:38:38;;;;;;;;;;;;;;;21.59;68.15;102064.47;5054603;28;1022;-72
2023/08/16 10:41:09;;;;;;;;;;;;;;;21.60;67.45;102066.09;5054255;28;1150;-73
2023/08/16 10:43:35;;;;;;;;;;;;;;;21.60;68.20;102066.09;5054245;28;1052;-73
2023/08/16 10:46:01;;;;;;;;;;;;;;;21.60;68.02;102066.09;5053040;28;1020;-73
2023/08/16 10:48:33;;;;;;;;;;;;;;;21.64;69.46;102063.97;5052619;28;1187;-72
2023/08/16 10:51:01;;;;;;;;;;;;;;;21.74;70.22;102057.50;5049150;28;1902;-73
2023/08/16 10:53:27;;;;;;;;;;;;;;;21.87;69.98;102064.06;5051961;28;1145;-73
2023/08/16 10:55:54;;;;;;;;;;;;;;;21.90;69.51;102066.38;5031937;28;1313;-73
2023/08/16 10:58:21;;;;;;;;;;;;;;;21.91;69.70;102068.84;5051353;28;1074;-73
2023/08/16 11:00:54;;;;;;;;;;;;;;;21.92;69.28;102069.69;5052295;28;1138;-75
2023/08/16 11:03:20;;;;;;;;;;;;;;;21.91;68.77;102062.75;5054948;28;1081;-73
2023/08/16 11:05:45;;;;;;;;;;;;;;;21.95;69.45;102048.19;5031325;28;1583;-74
2023/08/16 11:08:11;;;;;;;;;;;;;;;22.03;69.15;102050.00;5030101;28;1198;-75
2023/08/16 11:10:37;;;;;;;;;;;;;;;22.05;69.36;102048.81;5049383;28;1933;-75
2023/08/16 11:13:11;;;;;;;;;;;;;;;22.07;69.24;102046.00;5048005;28;923;-73
2023/08/16 11:15:37;;;;;;;;;;;;;;;22.17;69.63;102039.56;5048918;28;1129;-73
2023/08/16 11:18:02;;;;;;;;;;;;;;;22.25;69.32;102043.97;5052309;28;1106;-73
2023/08/16 11:20:29;;;;;;;;;;;;;;;22.32;69.13;102050.22;5055303;28;1168;-74
2023/08/16 11:22:54;;;;;;;;;;;;;;;22.40;68.76;102046.72;5051132;28;1217;-73
2023/08/16 11:25:19;;;;;;;;;;;;;;;22.54;69.59;102043.34;5048962;28;1081;-72
2023/08/16 11:27:44;;;;;;;;;;;;;;;22.66;69.65;102047.25;5046399;28;1535;-72
2023/08/16 11:30:11;;;;;;;;;;;;;;;22.78;68.94;102045.84;5044515;28;1114;-76
2023/08/16 11:32:37;;;;;;;;;;;;;;;22.86;68.92;102046.75;5056570;28;1921;-76
2023/08/16 11:35:06;;;;;;;;;;;;;;;22.87;66.23;102048.41;5048453;28;1228;-76
2023/08/16 11:37:32;;;;;;;;;;;;;;;22.89;66.17;102054.41;5052655;28;1238;-76
2023/08/16 11:39:58;;;;;;;;;;;;;;;22.86;67.14;102046.75;5048206;28;1398;-76
2023/08/16 11:42:25;;;;;;;;;;;;;;;22.85;66.57;102045.94;5048892;28;1078;-76
2023/08/16 11:44:50;;;;;;;;;;;;;;;22.76;66.24;102047.81;5045427;28;1105;-76
2023/08/16 11:47:16;;;;;;;;;;;;;;;22.80;67.05;102033.25;5046759;28;1082;-76
2023/08/16 11:49:41;;;;;;;;;;;;;;;22.87;67.68;102043.13;5041776;28;1102;-76
2023/08/16 11:52:07;;;;;;;;;;;;;;;22.93;66.87;102037.97;5046960;28;1898;-77
2023/08/16 11:54:32;;;;;;;;;;;;;;;23.01;67.19;102034.47;5047562;28;1152;-76
2023/08/16 11:56:58;;;;;;;;;;;;;;;23.07;67.78;102027.63;5036264;28;1193;-76
2023/08/16 11:59:23;;;;;;;;;;;;;;;23.03;65.03;102022.69;5042956;28;1254;-76
2023/08/16 12:01:49;;;;;;;;;;;;;;;23.03;65.24;102027.16;5032084;28;1282;-76
2023/08/16 12:04:16;;;;;;;;;;;;;;;23.04;65.12;102028.78;5046920;28;1174;-75
2023/08/16 12:06:46;;;;;;;;;;;;;;;23.06;65.90;102032.09;5049853;28;1108;-76
2023/08/16 12:09:14;;;;;;;;;;;;;;;23.13;65.54;102035.69;5041382;28;1046;-76
2023/08/16 12:11:39;;;;;;;;;;;;;;;23.05;62.97;102027.78;5047335;28;1894;-76
2023/08/16 12:14:05;;;;;;;;;;;;;;;23.06;64.82;102021.50;5052621;28;1207;-76
2023/08/16 12:16:31;;;;;;;;;;;;;;;23.11;64.33;102019.16;5053225;28;1053;-77
2023/08/16 12:18:57;;;;;;;;;;;;;;;23.19;64.31;102019.06;5047334;28;1113;-77
2023/08/16 12:21:23;;;;;;;;;;;;;;;23.21;63.84;102019.72;5046862;28;1051;-76
2023/08/16 12:23:48;;;;;;;;;;;;;;;23.21;63.90;102019.72;5052098;28;1235;-77
2023/08/16 12:26:13;;;;;;;;;;;;;;;23.22;62.32;102013.41;5041866;28;1250;-76
2023/08/16 12:28:38;;;;;;;;;;;;;;;23.22;61.01;102016.06;5026126;28;1110;-77
2023/08/16 12:31:05;;;;;;;;;;;;;;;23.21;61.65;102003.81;5046914;28;1905;-76
2023/08/16 12:33:30;;;;;;;;;;;;;;;23.15;59.72;102007.19;5032415;28;1123;-76
2023/08/16 12:35:55;;;;;;;;;;;;;;;23.24;61.49;102008.78;5050951;28;1177;-76
2023/08/16 12:38:20;;;;;;;;;;;;;;;23.25;60.57;102005.13;5048433;28;1141;-76
2023/08/16 12:40:45;;;;;;;;;;;;;;;23.20;58.32;102002.19;5049024;28;1153;-77